createdAt,value
2023-09-13T00:03:14.300Z,61.24
2023-09-13T00:08:19.261Z,61.20
2023-09-13T00:13:22.419Z,60.37
2023-09-13T00:18:25.870Z,60.77
2023-09-13T00:23:30.850Z,61.04
2023-09-13T00:28:34.300Z,60.72
2023-09-13T00:33:37.868Z,61.28
2023-09-13T00:38:42.776Z,61.29
2023-09-13T00:43:46.723Z,60.97
2023-09-13T00:48:51.250Z,61.11
2023-09-13T00:53:57.531Z,61.83
2023-09-13T00:59:01.229Z,61.51
2023-09-13T01:04:05.673Z,61.55
2023-09-13T01:09:10.663Z,61.01
2023-09-13T01:14:14.256Z,61.40
2023-09-13T01:19:38.684Z,61.27
2023-09-13T01:25:02.665Z,61.32
2023-09-13T01:30:11.647Z,61.15
2023-09-13T01:35:15.385Z,60.99
2023-09-13T01:40:19.241Z,61.28
2023-09-13T01:45:25.979Z,61.19
2023-09-13T01:50:29.797Z,61.02
2023-09-13T01:55:36.298Z,61.25
2023-09-13T02:00:42.801Z,61.35
2023-09-13T02:05:47.692Z,61.20
2023-09-13T02:10:51.525Z,61.13
2023-09-13T02:15:56.643Z,61.40
2023-09-13T02:21:00.298Z,61.26
2023-09-13T02:26:04.543Z,61.63
2023-09-13T02:31:09.588Z,61.40
2023-09-13T02:36:13.089Z,61.05
2023-09-13T02:41:16.622Z,61.22
2023-09-13T02:46:21.615Z,61.34
2023-09-13T02:51:25.282Z,60.98
2023-09-13T02:56:28.733Z,61.04
2023-09-13T03:01:33.813Z,61.53
2023-09-13T03:06:37.347Z,61.26
2023-09-13T03:11:40.779Z,61.00
2023-09-13T03:16:45.685Z,61.47
2023-09-13T03:21:50.391Z,61.11
2023-09-13T03:26:53.880Z,60.74
2023-09-13T03:31:58.849Z,60.97
2023-09-13T03:37:02.506Z,60.80
2023-09-13T03:42:06.250Z,60.33
2023-09-13T03:47:11.283Z,59.74
2023-09-13T03:52:14.936Z,60.03
2023-09-13T03:57:18.491Z,59.64
2023-09-13T04:02:23.700Z,57.32
2023-09-13T04:07:27.330Z,46.89
2023-09-13T04:12:30.768Z,40.52
2023-09-13T04:17:35.784Z,38.43
2023-09-13T04:22:39.396Z,45.50
2023-09-13T04:27:45.125Z,50.04
2023-09-13T04:32:50.091Z,52.09
2023-09-13T04:37:55.262Z,53.17
2023-09-13T04:43:25.051Z,53.67
2023-09-13T04:48:30.147Z,54.71
2023-09-13T04:53:34.886Z,54.78
2023-09-13T04:58:39.159Z,53.54
2023-09-13T05:03:46.595Z,46.84
2023-09-13T05:08:52.173Z,33.53
2023-09-13T05:14:11.227Z,27.70
2023-09-13T05:19:16.193Z,24.93
2023-09-13T05:24:19.846Z,24.03
2023-09-13T05:29:24.143Z,22.87
2023-09-13T05:34:29.787Z,21.94
2023-09-13T05:39:33.327Z,21.07
2023-09-13T05:44:36.882Z,20.29
2023-09-13T05:49:41.765Z,20.11
2023-09-13T05:54:45.310Z,19.21
2023-09-13T05:59:48.774Z,18.85
2023-09-13T06:04:53.765Z,18.00
2023-09-13T06:09:59.666Z,17.84
2023-09-13T06:15:03.254Z,17.04
2023-09-13T06:20:10.250Z,16.74
2023-09-13T06:25:15.798Z,16.19
2023-09-13T06:30:20.882Z,15.71
2023-09-13T06:35:25.993Z,15.03
2023-09-13T06:40:35.594Z,14.99
2023-09-13T06:45:54.147Z,12.70
2023-09-13T06:56:13.777Z,12.76
2023-09-13T07:06:26.263Z,12.60
2023-09-13T07:11:30.025Z,12.89
2023-09-13T07:16:33.771Z,13.09
2023-09-13T07:21:38.864Z,13.05
2023-09-13T07:26:42.371Z,13.14
2023-09-13T07:31:46.042Z,13.30
2023-09-13T07:36:51.004Z,13.01
2023-09-13T07:41:54.586Z,12.18
2023-09-13T07:46:58.207Z,12.65
2023-09-13T07:52:03.580Z,12.97
2023-09-13T07:57:07.370Z,12.81
2023-09-13T08:02:10.944Z,13.57
2023-09-13T08:07:15.933Z,13.62
2023-09-13T08:12:19.538Z,14.31
2023-09-13T08:17:23.165Z,14.28
2023-09-13T08:22:39.268Z,15.64
2023-09-13T08:27:44.299Z,16.88
2023-09-13T08:32:48.146Z,16.70
2023-09-13T08:37:53.140Z,17.41
2023-09-13T08:42:58.053Z,20.19
2023-09-13T08:48:03.684Z,21.17
2023-09-13T08:53:10.180Z,22.56
2023-09-13T08:58:13.709Z,24.73
2023-09-13T09:03:19.641Z,26.49
2023-09-13T09:08:26.320Z,26.54
2023-09-13T09:13:31.084Z,27.19
2023-09-13T09:18:38.950Z,28.00
2023-09-13T09:23:44.743Z,28.07
2023-09-13T09:28:52.059Z,28.80
2023-09-13T09:34:04.575Z,29.53
2023-09-13T09:39:09.880Z,29.46
2023-09-13T09:44:13.521Z,29.99
2023-09-13T09:49:17.026Z,29.74
2023-09-13T09:54:22.079Z,30.34
2023-09-13T09:59:30.357Z,30.47
2023-09-13T10:04:47.487Z,29.09
2023-09-13T10:09:52.860Z,30.86
2023-09-13T10:14:58.645Z,31.11
2023-09-13T10:20:04.984Z,31.26
2023-09-13T10:25:14.026Z,30.83
2023-09-13T10:30:23.169Z,30.43
2023-09-13T10:35:30.566Z,30.94
2023-09-13T10:40:42.394Z,30.64
2023-09-13T10:45:46.207Z,31.26
2023-09-13T10:50:50.941Z,31.03
2023-09-13T10:55:56.729Z,30.84
2023-09-13T11:01:00.968Z,31.16
2023-09-13T11:06:05.473Z,31.58
2023-09-13T11:11:13.484Z,32.00
2023-09-13T11:16:17.525Z,31.65
2023-09-13T11:21:22.605Z,31.24
2023-09-13T11:26:50.288Z,31.65
2023-09-13T11:32:02.327Z,30.78
2023-09-13T11:37:08.873Z,30.66
2023-09-13T11:42:25.805Z,30.28
2023-09-13T11:47:37.750Z,31.41
2023-09-13T11:53:14.791Z,31.84
2023-09-13T11:58:51.110Z,31.88
2023-09-13T12:09:00.279Z,30.68
2023-09-13T12:14:12.723Z,30.76
2023-09-13T12:19:19.772Z,31.38
2023-09-13T12:24:26.244Z,31.69
2023-09-13T12:29:31.344Z,31.43
2023-09-13T12:34:34.999Z,31.80
2023-09-13T12:39:38.565Z,31.69
2023-09-13T12:44:47.120Z,31.72
2023-09-13T12:49:52.226Z,31.84
2023-09-13T12:54:57.581Z,32.57
2023-09-13T13:00:02.489Z,32.67
2023-09-13T13:05:08.736Z,33.01
2023-09-13T13:10:16.816Z,33.39
2023-09-13T13:15:22.804Z,33.53
2023-09-13T13:20:27.994Z,33.96
2023-09-13T13:25:31.843Z,34.50
2023-09-13T13:30:37.466Z,34.53
2023-09-13T13:35:41.218Z,34.71
2023-09-13T13:40:44.751Z,35.37
2023-09-13T13:45:49.815Z,35.11
2023-09-13T13:50:53.406Z,35.62
2023-09-13T13:55:57.144Z,35.88
2023-09-13T14:01:05.039Z,36.56
2023-09-13T14:06:08.760Z,36.41
2023-09-13T14:11:12.331Z,36.48
2023-09-13T14:16:17.380Z,37.05
2023-09-13T14:21:20.957Z,36.73
2023-09-13T14:26:24.452Z,37.28
2023-09-13T14:31:31.054Z,37.96
2023-09-13T14:36:34.695Z,37.84
2023-09-13T14:41:38.401Z,39.00
2023-09-13T14:46:43.467Z,39.20
2023-09-13T14:51:50.051Z,39.40
2023-09-13T14:56:54.119Z,39.37
2023-09-13T15:02:00.093Z,39.56
2023-09-13T15:07:03.748Z,40.24
2023-09-13T15:12:11.055Z,40.96
2023-09-13T15:17:16.170Z,41.88
2023-09-13T15:22:19.893Z,42.19
2023-09-13T15:27:26.123Z,43.33
2023-09-13T15:32:31.296Z,43.79
2023-09-13T15:37:35.057Z,44.41
2023-09-13T15:42:39.935Z,45.19
2023-09-13T15:47:45.036Z,46.18
2023-09-13T15:52:49.582Z,46.92
2023-09-13T15:57:53.126Z,47.15
2023-09-13T16:02:58.344Z,47.52
2023-09-13T16:08:01.942Z,48.09
2023-09-13T16:13:05.777Z,48.78
2023-09-13T16:18:10.735Z,49.40
2023-09-13T16:23:16.693Z,50.04
2023-09-13T16:28:20.612Z,50.99
2023-09-13T16:33:26.377Z,51.48
2023-09-13T16:38:29.983Z,51.86
2023-09-13T16:43:33.483Z,52.46
2023-09-13T16:48:38.431Z,52.86
2023-09-13T16:53:41.929Z,53.32
2023-09-13T16:58:45.841Z,53.39
2023-09-13T17:03:51.165Z,53.91
2023-09-13T17:08:57.201Z,54.02
2023-09-13T17:14:00.787Z,54.25
2023-09-13T17:19:05.806Z,54.59
2023-09-13T17:24:09.487Z,54.59
2023-09-13T17:29:12.995Z,55.08
2023-09-13T17:34:17.913Z,55.13
2023-09-13T17:39:21.654Z,55.22
2023-09-13T17:44:25.710Z,55.70
2023-09-13T17:49:30.681Z,56.03
2023-09-13T17:54:34.755Z,55.87
2023-09-13T17:59:39.017Z,55.90
2023-09-13T18:04:44.071Z,56.35
2023-09-13T18:09:48.024Z,56.39
2023-09-13T18:14:51.989Z,56.49
2023-09-13T18:19:56.922Z,56.42
2023-09-13T18:25:00.454Z,56.73
2023-09-13T18:30:04.899Z,56.74
2023-09-13T18:35:11.389Z,57.09
2023-09-13T18:40:14.889Z,57.78
2023-09-13T18:45:18.485Z,57.32
2023-09-13T18:50:23.384Z,57.57
2023-09-13T18:55:26.956Z,57.69
2023-09-13T19:00:30.597Z,57.62
2023-09-13T19:05:35.490Z,57.66
2023-09-13T19:10:39.071Z,57.27
2023-09-13T19:15:42.697Z,57.23
2023-09-13T19:20:49.221Z,57.54
2023-09-13T19:25:53.365Z,58.14
2023-09-13T19:30:59.642Z,58.09
2023-09-13T19:36:06.684Z,57.70
2023-09-13T19:41:13.400Z,57.93
2023-09-13T19:46:17.408Z,58.07
2023-09-13T19:51:22.862Z,58.32
2023-09-13T19:56:26.453Z,57.78
2023-09-13T20:01:29.943Z,58.30
2023-09-13T20:06:37.303Z,58.29
2023-09-13T20:11:44.603Z,58.26
2023-09-13T20:16:48.135Z,58.44
2023-09-13T20:21:53.025Z,58.99
2023-09-13T20:26:56.573Z,58.76
2023-09-13T20:32:00.081Z,58.63
2023-09-13T20:37:05.423Z,58.65
2023-09-13T20:42:11.253Z,58.78
2023-09-13T20:47:14.728Z,59.23
2023-09-13T20:52:19.731Z,59.20
2023-09-13T20:57:23.278Z,59.41
2023-09-13T21:02:26.756Z,59.76
2023-09-13T21:07:31.671Z,59.94
2023-09-13T21:12:35.267Z,60.24
2023-09-13T21:17:38.811Z,60.21
2023-09-13T21:22:43.754Z,60.03
2023-09-13T21:27:47.053Z,59.34
2023-09-13T21:32:50.595Z,59.77
2023-09-13T21:37:55.468Z,59.90
2023-09-13T21:42:59.039Z,59.93
2023-09-13T21:48:02.635Z,59.95
2023-09-13T21:53:07.661Z,60.00
2023-09-13T21:58:13.712Z,60.25
2023-09-13T22:03:18.038Z,60.26
2023-09-13T22:08:23.164Z,60.01
2023-09-13T22:13:27.045Z,60.19
2023-09-13T22:18:31.037Z,60.11
2023-09-13T22:23:36.146Z,60.04
2023-09-13T22:28:39.733Z,60.14
2023-09-13T22:33:43.381Z,60.37
2023-09-13T22:38:58.402Z,60.12
2023-09-13T22:44:11.883Z,59.95
2023-09-13T22:49:15.510Z,60.17
2023-09-13T22:54:20.932Z,60.48
2023-09-13T22:59:24.994Z,60.25
2023-09-13T23:04:28.624Z,60.38
2023-09-13T23:09:34.859Z,60.49
2023-09-13T23:14:38.902Z,60.58
2023-09-13T23:19:42.361Z,60.29
2023-09-13T23:24:47.266Z,60.26
2023-09-13T23:29:50.813Z,60.28
2023-09-13T23:34:54.432Z,60.54
2023-09-13T23:39:59.889Z,60.59
2023-09-13T23:45:03.722Z,60.57
2023-09-13T23:50:08.910Z,60.86
2023-09-13T23:55:14.147Z,60.78
